sensor_id;sensor_type;location;lat;lon;timestamp;temperature;humidity
20418;DHT22;10368;51.436;6.774;2023-08-20T00:01:26;20.70;99.90
20418;DHT22;10368;51.436;6.774;2023-08-20T00:03:54;20.80;99.90
20418;DHT22;10368;51.436;6.774;2023-08-20T00:06:22;20.70;99.90
20418;DHT22;10368;51.436;6.774;2023-08-20T00:08:49;20.80;99.90
20418;DHT22;10368;51.436;6.774;2023-08-20T00:11:16;20.70;99.90
20418;DHT22;10368;51.436;6.774;2023-08-20T00:13:43;20.70;99.90
20418;DHT22;10368;51.436;6.774;2023-08-20T00:16:11;20.70;99.90
20418;DHT22;10368;51.436;6.774;2023-08-20T00:18:38;20.60;99.90
20418;DHT22;10368;51.436;6.774;2023-08-20T00:21:06;20.70;99.90
20418;DHT22;10368;51.436;6.774;2023-08-20T00:23:34;20.60;99.90
20418;DHT22;10368;51.436;6.774;2023-08-20T00:26:02;20.60;99.90
20418;DHT22;10368;51.436;6.774;2023-08-20T00:28:29;20.60;99.90
20418;DHT22;10368;51.436;6.774;2023-08-20T00:30:56;20.50;99.90
20418;DHT22;10368;51.436;6.774;2023-08-20T00:33:23;20.60;99.90
20418;DHT22;10368;51.436;6.774;2023-08-20T00:35:50;20.50;99.90
20418;DHT22;10368;51.436;6.774;2023-08-20T00:43:12;20.40;99.90
20418;DHT22;10368;51.436;6.774;2023-08-20T00:45:40;20.40;99.90
20418;DHT22;10368;51.436;6.774;2023-08-20T00:48:07;20.40;99.90
20418;DHT22;10368;51.436;6.774;2023-08-20T00:50:35;20.30;99.90
20418;DHT22;10368;51.436;6.774;2023-08-20T00:53:02;20.30;99.90
20418;DHT22;10368;51.436;6.774;2023-08-20T00:55:29;20.30;99.90
20418;DHT22;10368;51.436;6.774;2023-08-20T00:57:56;20.30;99.90
20418;DHT22;10368;51.436;6.774;2023-08-20T01:00:24;20.30;99.90
20418;DHT22;10368;51.436;6.774;2023-08-20T01:02:51;20.30;99.90
20418;DHT22;10368;51.436;6.774;2023-08-20T01:05:18;20.30;99.90
20418;DHT22;10368;51.436;6.774;2023-08-20T01:11:01;20.30;99.90
20418;DHT22;10368;51.436;6.774;2023-08-20T01:13:30;20.30;99.90
20418;DHT22;10368;51.436;6.774;2023-08-20T01:15:57;20.30;99.90
20418;DHT22;10368;51.436;6.774;2023-08-20T01:18:24;20.20;99.90
20418;DHT22;10368;51.436;6.774;2023-08-20T01:20:57;20.20;99.90
20418;DHT22;10368;51.436;6.774;2023-08-20T01:23:40;20.20;99.90
20418;DHT22;10368;51.436;6.774;2023-08-20T01:29:07;20.20;99.90
20418;DHT22;10368;51.436;6.774;2023-08-20T01:31:35;20.10;99.90
20418;DHT22;10368;51.436;6.774;2023-08-20T01:34:02;20.20;99.90
20418;DHT22;10368;51.436;6.774;2023-08-20T01:36:29;20.10;99.90
20418;DHT22;10368;51.436;6.774;2023-08-20T01:38:56;20.00;99.90
20418;DHT22;10368;51.436;6.774;2023-08-20T01:41:23;20.10;99.90
20418;DHT22;10368;51.436;6.774;2023-08-20T01:43:50;20.10;99.90
20418;DHT22;10368;51.436;6.774;2023-08-20T01:46:17;20.10;99.90
20418;DHT22;10368;51.436;6.774;2023-08-20T01:48:44;20.10;99.90
20418;DHT22;10368;51.436;6.774;2023-08-20T01:51:11;20.10;99.90
20418;DHT22;10368;51.436;6.774;2023-08-20T01:53:38;20.10;99.90
20418;DHT22;10368;51.436;6.774;2023-08-20T01:56:10;20.10;99.90
20418;DHT22;10368;51.436;6.774;2023-08-20T01:58:37;20.10;99.90
20418;DHT22;10368;51.436;6.774;2023-08-20T02:01:04;20.00;99.90
20418;DHT22;10368;51.436;6.774;2023-08-20T02:03:31;20.00;99.90
20418;DHT22;10368;51.436;6.774;2023-08-20T02:05:58;19.90;99.90
20418;DHT22;10368;51.436;6.774;2023-08-20T02:08:25;20.00;99.90
20418;DHT22;10368;51.436;6.774;2023-08-20T02:11:00;20.00;99.90
20418;DHT22;10368;51.436;6.774;2023-08-20T02:13:27;20.00;99.90
20418;DHT22;10368;51.436;6.774;2023-08-20T02:16:01;20.00;99.90
20418;DHT22;10368;51.436;6.774;2023-08-20T02:18:29;20.00;99.90
20418;DHT22;10368;51.436;6.774;2023-08-20T02:20:56;20.10;99.90
20418;DHT22;10368;51.436;6.774;2023-08-20T02:23:23;20.00;99.90
20418;DHT22;10368;51.436;6.774;2023-08-20T02:25:50;20.00;99.90
20418;DHT22;10368;51.436;6.774;2023-08-20T02:28:17;20.00;99.90
20418;DHT22;10368;51.436;6.774;2023-08-20T02:30:45;20.00;99.90
20418;DHT22;10368;51.436;6.774;2023-08-20T02:33:12;19.90;99.90
20418;DHT22;10368;51.436;6.774;2023-08-20T02:35:40;19.90;99.90
20418;DHT22;10368;51.436;6.774;2023-08-20T02:38:07;20.00;99.90
20418;DHT22;10368;51.436;6.774;2023-08-20T02:40:40;19.90;99.90
20418;DHT22;10368;51.436;6.774;2023-08-20T02:43:08;20.10;99.90
20418;DHT22;10368;51.436;6.774;2023-08-20T02:45:42;20.00;99.90
20418;DHT22;10368;51.436;6.774;2023-08-20T02:48:10;20.10;99.90
20418;DHT22;10368;51.436;6.774;2023-08-20T02:50:37;20.10;99.90
20418;DHT22;10368;51.436;6.774;2023-08-20T02:53:04;20.10;99.90
20418;DHT22;10368;51.436;6.774;2023-08-20T02:55:32;20.10;99.90
20418;DHT22;10368;51.436;6.774;2023-08-20T02:57:59;20.00;99.90
20418;DHT22;10368;51.436;6.774;2023-08-20T03:00:26;20.00;99.90
20418;DHT22;10368;51.436;6.774;2023-08-20T03:02:53;20.00;99.90
20418;DHT22;10368;51.436;6.774;2023-08-20T03:05:20;20.00;99.90
20418;DHT22;10368;51.436;6.774;2023-08-20T03:07:47;20.10;99.90
20418;DHT22;10368;51.436;6.774;2023-08-20T03:10:14;19.90;99.90
20418;DHT22;10368;51.436;6.774;2023-08-20T03:12:41;19.90;99.90
20418;DHT22;10368;51.436;6.774;2023-08-20T03:15:08;19.90;99.90
20418;DHT22;10368;51.436;6.774;2023-08-20T03:17:35;19.90;99.90
20418;DHT22;10368;51.436;6.774;2023-08-20T03:20:03;19.80;99.90
20418;DHT22;10368;51.436;6.774;2023-08-20T03:22:32;19.80;99.90
20418;DHT22;10368;51.436;6.774;2023-08-20T03:24:59;19.80;99.90
20418;DHT22;10368;51.436;6.774;2023-08-20T03:27:26;19.80;99.90
20418;DHT22;10368;51.436;6.774;2023-08-20T03:29:53;19.90;99.90
20418;DHT22;10368;51.436;6.774;2023-08-20T03:32:20;19.90;99.90
20418;DHT22;10368;51.436;6.774;2023-08-20T03:34:47;19.80;99.90
20418;DHT22;10368;51.436;6.774;2023-08-20T03:37:15;19.90;99.90
20418;DHT22;10368;51.436;6.774;2023-08-20T03:39:42;19.90;99.90
20418;DHT22;10368;51.436;6.774;2023-08-20T03:42:09;19.70;99.90
20418;DHT22;10368;51.436;6.774;2023-08-20T03:44:36;19.90;99.90
20418;DHT22;10368;51.436;6.774;2023-08-20T03:47:03;19.90;99.90
20418;DHT22;10368;51.436;6.774;2023-08-20T03:49:32;19.80;99.90
20418;DHT22;10368;51.436;6.774;2023-08-20T03:51:59;19.90;99.90
20418;DHT22;10368;51.436;6.774;2023-08-20T03:54:29;19.90;99.90
20418;DHT22;10368;51.436;6.774;2023-08-20T03:56:56;19.90;99.90
20418;DHT22;10368;51.436;6.774;2023-08-20T03:59:23;19.70;99.90
20418;DHT22;10368;51.436;6.774;2023-08-20T04:01:49;19.70;99.90
20418;DHT22;10368;51.436;6.774;2023-08-20T04:04:16;19.70;99.90
20418;DHT22;10368;51.436;6.774;2023-08-20T04:06:43;19.70;99.90
20418;DHT22;10368;51.436;6.774;2023-08-20T04:09:10;19.80;99.90
20418;DHT22;10368;51.436;6.774;2023-08-20T04:11:37;19.80;99.90
20418;DHT22;10368;51.436;6.774;2023-08-20T04:14:04;19.80;99.90
20418;DHT22;10368;51.436;6.774;2023-08-20T04:16:31;19.80;99.90
20418;DHT22;10368;51.436;6.774;2023-08-20T04:18:58;19.70;99.90
20418;DHT22;10368;51.436;6.774;2023-08-20T04:21:25;19.60;99.90
20418;DHT22;10368;51.436;6.774;2023-08-20T04:23:51;19.60;99.90
20418;DHT22;10368;51.436;6.774;2023-08-20T04:26:18;19.60;99.90
20418;DHT22;10368;51.436;6.774;2023-08-20T04:28:45;19.60;99.90
20418;DHT22;10368;51.436;6.774;2023-08-20T04:31:13;19.50;99.90
20418;DHT22;10368;51.436;6.774;2023-08-20T04:33:39;19.50;99.90
20418;DHT22;10368;51.436;6.774;2023-08-20T04:36:06;19.60;99.90
20418;DHT22;10368;51.436;6.774;2023-08-20T04:38:33;19.50;99.90
20418;DHT22;10368;51.436;6.774;2023-08-20T04:41:00;19.60;99.90
20418;DHT22;10368;51.436;6.774;2023-08-20T04:43:27;19.50;99.90
20418;DHT22;10368;51.436;6.774;2023-08-20T04:45:54;19.60;99.90
20418;DHT22;10368;51.436;6.774;2023-08-20T04:48:20;19.50;99.90
20418;DHT22;10368;51.436;6.774;2023-08-20T04:50:47;19.40;99.90
20418;DHT22;10368;51.436;6.774;2023-08-20T04:53:14;19.40;99.90
20418;DHT22;10368;51.436;6.774;2023-08-20T04:55:41;19.40;99.90
20418;DHT22;10368;51.436;6.774;2023-08-20T04:58:08;19.40;99.90
20418;DHT22;10368;51.436;6.774;2023-08-20T05:00:35;19.50;99.90
20418;DHT22;10368;51.436;6.774;2023-08-20T05:03:02;19.50;99.90
20418;DHT22;10368;51.436;6.774;2023-08-20T05:05:29;19.50;99.90
20418;DHT22;10368;51.436;6.774;2023-08-20T05:07:56;19.50;99.90
20418;DHT22;10368;51.436;6.774;2023-08-20T05:10:23;19.50;99.90
20418;DHT22;10368;51.436;6.774;2023-08-20T05:12:50;19.40;99.90
20418;DHT22;10368;51.436;6.774;2023-08-20T05:15:18;19.40;99.90
20418;DHT22;10368;51.436;6.774;2023-08-20T05:17:44;19.30;99.90
20418;DHT22;10368;51.436;6.774;2023-08-20T05:20:11;19.40;99.90
20418;DHT22;10368;51.436;6.774;2023-08-20T05:22:40;19.40;99.90
20418;DHT22;10368;51.436;6.774;2023-08-20T05:25:07;19.40;99.90
20418;DHT22;10368;51.436;6.774;2023-08-20T05:27:34;19.30;99.90
20418;DHT22;10368;51.436;6.774;2023-08-20T05:30:04;19.30;99.90
20418;DHT22;10368;51.436;6.774;2023-08-20T05:32:31;19.30;99.90
20418;DHT22;10368;51.436;6.774;2023-08-20T05:34:58;19.10;99.90
20418;DHT22;10368;51.436;6.774;2023-08-20T05:37:25;19.20;99.90
20418;DHT22;10368;51.436;6.774;2023-08-20T05:39:52;19.20;99.90
20418;DHT22;10368;51.436;6.774;2023-08-20T05:42:19;19.20;99.90
20418;DHT22;10368;51.436;6.774;2023-08-20T05:44:46;19.40;99.90
20418;DHT22;10368;51.436;6.774;2023-08-20T05:47:12;19.40;99.90
20418;DHT22;10368;51.436;6.774;2023-08-20T05:49:39;19.30;99.90
20418;DHT22;10368;51.436;6.774;2023-08-20T05:52:06;19.40;99.90
20418;DHT22;10368;51.436;6.774;2023-08-20T05:54:33;19.40;99.90
20418;DHT22;10368;51.436;6.774;2023-08-20T05:57:00;19.50;99.90
20418;DHT22;10368;51.436;6.774;2023-08-20T05:59:28;19.60;99.90
20418;DHT22;10368;51.436;6.774;2023-08-20T06:01:55;19.50;99.90
20418;DHT22;10368;51.436;6.774;2023-08-20T06:04:22;19.70;99.90
20418;DHT22;10368;51.436;6.774;2023-08-20T06:06:49;19.70;99.90
20418;DHT22;10368;51.436;6.774;2023-08-20T06:09:16;19.60;99.90
20418;DHT22;10368;51.436;6.774;2023-08-20T06:11:42;19.70;99.90
20418;DHT22;10368;51.436;6.774;2023-08-20T06:14:09;19.70;99.90
20418;DHT22;10368;51.436;6.774;2023-08-20T06:16:36;19.80;99.90
20418;DHT22;10368;51.436;6.774;2023-08-20T06:19:03;19.90;99.90
20418;DHT22;10368;51.436;6.774;2023-08-20T06:21:30;19.90;99.90
20418;DHT22;10368;51.436;6.774;2023-08-20T06:23:57;19.90;99.90
20418;DHT22;10368;51.436;6.774;2023-08-20T06:26:24;19.90;99.90
20418;DHT22;10368;51.436;6.774;2023-08-20T06:28:51;19.90;99.90
20418;DHT22;10368;51.436;6.774;2023-08-20T06:31:18;19.90;99.90
20418;DHT22;10368;51.436;6.774;2023-08-20T06:33:47;19.90;99.90
20418;DHT22;10368;51.436;6.774;2023-08-20T06:36:14;20.00;99.90
20418;DHT22;10368;51.436;6.774;2023-08-20T06:38:42;20.00;99.90
20418;DHT22;10368;51.436;6.774;2023-08-20T06:41:09;20.10;99.90
20418;DHT22;10368;51.436;6.774;2023-08-20T06:43:36;20.20;99.90
20418;DHT22;10368;51.436;6.774;2023-08-20T06:46:02;20.10;99.90
20418;DHT22;10368;51.436;6.774;2023-08-20T06:48:29;20.20;99.90
20418;DHT22;10368;51.436;6.774;2023-08-20T06:50:56;20.30;99.90
20418;DHT22;10368;51.436;6.774;2023-08-20T06:53:23;20.40;99.90
20418;DHT22;10368;51.436;6.774;2023-08-20T06:55:50;20.40;99.90
20418;DHT22;10368;51.436;6.774;2023-08-20T06:58:17;20.40;99.90
20418;DHT22;10368;51.436;6.774;2023-08-20T07:00:43;20.50;99.90
20418;DHT22;10368;51.436;6.774;2023-08-20T07:03:10;20.50;99.90
20418;DHT22;10368;51.436;6.774;2023-08-20T07:05:37;20.60;99.90
20418;DHT22;10368;51.436;6.774;2023-08-20T07:08:04;20.60;99.90
20418;DHT22;10368;51.436;6.774;2023-08-20T07:10:31;20.70;99.90
20418;DHT22;10368;51.436;6.774;2023-08-20T07:12:58;20.70;99.90
20418;DHT22;10368;51.436;6.774;2023-08-20T07:15:25;20.70;99.90
20418;DHT22;10368;51.436;6.774;2023-08-20T07:17:52;20.80;99.90
20418;DHT22;10368;51.436;6.774;2023-08-20T07:20:19;20.90;99.90
20418;DHT22;10368;51.436;6.774;2023-08-20T07:22:46;21.00;99.90
20418;DHT22;10368;51.436;6.774;2023-08-20T07:25:13;21.00;99.90
20418;DHT22;10368;51.436;6.774;2023-08-20T07:27:39;21.00;99.90
20418;DHT22;10368;51.436;6.774;2023-08-20T07:30:10;21.10;99.90
20418;DHT22;10368;51.436;6.774;2023-08-20T07:32:37;21.20;99.90
20418;DHT22;10368;51.436;6.774;2023-08-20T07:35:04;21.20;99.90
20418;DHT22;10368;51.436;6.774;2023-08-20T07:37:37;21.30;99.90
20418;DHT22;10368;51.436;6.774;2023-08-20T07:40:04;21.40;99.90
20418;DHT22;10368;51.436;6.774;2023-08-20T07:42:31;21.50;99.90
20418;DHT22;10368;51.436;6.774;2023-08-20T07:44:58;21.60;99.90
20418;DHT22;10368;51.436;6.774;2023-08-20T07:47:25;21.70;99.90
20418;DHT22;10368;51.436;6.774;2023-08-20T07:49:52;21.80;99.90
20418;DHT22;10368;51.436;6.774;2023-08-20T07:52:19;21.90;99.90
20418;DHT22;10368;51.436;6.774;2023-08-20T07:54:46;21.90;99.90
20418;DHT22;10368;51.436;6.774;2023-08-20T07:57:13;22.00;99.90
20418;DHT22;10368;51.436;6.774;2023-08-20T07:59:40;22.00;99.90
20418;DHT22;10368;51.436;6.774;2023-08-20T08:02:07;22.00;99.90
20418;DHT22;10368;51.436;6.774;2023-08-20T08:04:35;22.10;99.90
20418;DHT22;10368;51.436;6.774;2023-08-20T08:07:02;22.20;99.90
20418;DHT22;10368;51.436;6.774;2023-08-20T08:09:30;22.30;99.90
20418;DHT22;10368;51.436;6.774;2023-08-20T08:11:58;22.40;99.90
20418;DHT22;10368;51.436;6.774;2023-08-20T08:14:25;22.40;99.90
20418;DHT22;10368;51.436;6.774;2023-08-20T08:16:52;22.50;99.90
20418;DHT22;10368;51.436;6.774;2023-08-20T08:19:19;22.50;99.90
20418;DHT22;10368;51.436;6.774;2023-08-20T08:21:47;22.70;99.90
20418;DHT22;10368;51.436;6.774;2023-08-20T08:24:14;22.70;99.90
20418;DHT22;10368;51.436;6.774;2023-08-20T08:26:41;22.80;99.90
20418;DHT22;10368;51.436;6.774;2023-08-20T08:29:08;22.90;99.90
20418;DHT22;10368;51.436;6.774;2023-08-20T08:31:36;23.00;99.90
20418;DHT22;10368;51.436;6.774;2023-08-20T08:34:03;23.00;99.90
20418;DHT22;10368;51.436;6.774;2023-08-20T08:36:30;23.10;99.90
20418;DHT22;10368;51.436;6.774;2023-08-20T08:38:57;23.20;99.90
20418;DHT22;10368;51.436;6.774;2023-08-20T08:41:25;23.30;99.90
20418;DHT22;10368;51.436;6.774;2023-08-20T08:43:55;23.40;99.90
20418;DHT22;10368;51.436;6.774;2023-08-20T08:46:23;23.50;99.90
20418;DHT22;10368;51.436;6.774;2023-08-20T08:48:51;23.50;99.90
20418;DHT22;10368;51.436;6.774;2023-08-20T08:51:19;23.60;99.90
20418;DHT22;10368;51.436;6.774;2023-08-20T08:53:46;23.60;99.90
20418;DHT22;10368;51.436;6.774;2023-08-20T08:56:13;23.70;99.90
20418;DHT22;10368;51.436;6.774;2023-08-20T08:58:40;23.90;99.90
20418;DHT22;10368;51.436;6.774;2023-08-20T09:01:07;23.90;99.90
20418;DHT22;10368;51.436;6.774;2023-08-20T09:03:34;23.90;99.90
20418;DHT22;10368;51.436;6.774;2023-08-20T09:06:03;24.00;99.90
20418;DHT22;10368;51.436;6.774;2023-08-20T09:08:34;23.90;99.90
20418;DHT22;10368;51.436;6.774;2023-08-20T09:11:01;23.90;99.90
20418;DHT22;10368;51.436;6.774;2023-08-20T09:13:42;24.10;99.90
20418;DHT22;10368;51.436;6.774;2023-08-20T09:16:11;24.30;99.90
20418;DHT22;10368;51.436;6.774;2023-08-20T09:18:44;24.50;99.90
20418;DHT22;10368;51.436;6.774;2023-08-20T09:21:13;24.60;99.90
20418;DHT22;10368;51.436;6.774;2023-08-20T09:23:40;24.60;99.90
20418;DHT22;10368;51.436;6.774;2023-08-20T09:26:11;24.50;99.90
20418;DHT22;10368;51.436;6.774;2023-08-20T09:28:45;24.50;99.90
20418;DHT22;10368;51.436;6.774;2023-08-20T09:31:14;24.40;99.90
20418;DHT22;10368;51.436;6.774;2023-08-20T09:33:54;24.60;99.90
20418;DHT22;10368;51.436;6.774;2023-08-20T09:36:32;24.80;99.90
20418;DHT22;10368;51.436;6.774;2023-08-20T09:39:01;24.70;99.90
20418;DHT22;10368;51.436;6.774;2023-08-20T09:41:29;24.70;99.90
20418;DHT22;10368;51.436;6.774;2023-08-20T09:43:58;24.60;99.90
20418;DHT22;10368;51.436;6.774;2023-08-20T09:46:30;24.60;99.90
20418;DHT22;10368;51.436;6.774;2023-08-20T09:48:58;24.60;99.90
20418;DHT22;10368;51.436;6.774;2023-08-20T09:51:27;24.50;99.90
20418;DHT22;10368;51.436;6.774;2023-08-20T09:54:15;24.50;99.90
20418;DHT22;10368;51.436;6.774;2023-08-20T09:56:46;24.70;99.90
20418;DHT22;10368;51.436;6.774;2023-08-20T09:59:15;24.80;99.90
20418;DHT22;10368;51.436;6.774;2023-08-20T10:01:44;24.80;99.90
20418;DHT22;10368;51.436;6.774;2023-08-20T10:04:11;24.70;99.90
20418;DHT22;10368;51.436;6.774;2023-08-20T10:06:39;24.60;99.90
20418;DHT22;10368;51.436;6.774;2023-08-20T10:09:07;24.50;99.90
20418;DHT22;10368;51.436;6.774;2023-08-20T10:11:34;24.50;99.90
20418;DHT22;10368;51.436;6.774;2023-08-20T10:14:01;24.50;99.90
20418;DHT22;10368;51.436;6.774;2023-08-20T10:16:27;24.60;99.90
20418;DHT22;10368;51.436;6.774;2023-08-20T10:18:55;24.60;99.90
20418;DHT22;10368;51.436;6.774;2023-08-20T10:21:26;24.80;99.90
20418;DHT22;10368;51.436;6.774;2023-08-20T10:23:54;25.00;99.90
20418;DHT22;10368;51.436;6.774;2023-08-20T10:26:21;25.20;99.90
20418;DHT22;10368;51.436;6.774;2023-08-20T10:28:51;25.50;99.90
20418;DHT22;10368;51.436;6.774;2023-08-20T10:31:19;25.90;99.90
20418;DHT22;10368;51.436;6.774;2023-08-20T10:33:50;26.00;99.90
20418;DHT22;10368;51.436;6.774;2023-08-20T10:36:21;25.90;99.90
20418;DHT22;10368;51.436;6.774;2023-08-20T10:38:55;25.80;99.90
20418;DHT22;10368;51.436;6.774;2023-08-20T10:41:27;25.80;99.90
20418;DHT22;10368;51.436;6.774;2023-08-20T10:43:59;25.70;99.90
20418;DHT22;10368;51.436;6.774;2023-08-20T10:46:28;25.40;99.90
20418;DHT22;10368;51.436;6.774;2023-08-20T10:49:02;25.40;99.90
20418;DHT22;10368;51.436;6.774;2023-08-20T10:51:35;25.70;99.90
20418;DHT22;10368;51.436;6.774;2023-08-20T10:54:03;26.10;99.90
20418;DHT22;10368;51.436;6.774;2023-08-20T10:56:42;26.60;99.90
20418;DHT22;10368;51.436;6.774;2023-08-20T10:59:26;26.60;99.90
20418;DHT22;10368;51.436;6.774;2023-08-20T11:01:58;26.80;99.90
20418;DHT22;10368;51.436;6.774;2023-08-20T11:04:28;26.80;99.90
20418;DHT22;10368;51.436;6.774;2023-08-20T11:06:56;26.70;99.90
20418;DHT22;10368;51.436;6.774;2023-08-20T11:09:24;26.60;99.90
20418;DHT22;10368;51.436;6.774;2023-08-20T11:11:52;26.20;99.90
20418;DHT22;10368;51.436;6.774;2023-08-20T11:14:20;26.30;99.90
20418;DHT22;10368;51.436;6.774;2023-08-20T11:16:48;26.10;99.90
20418;DHT22;10368;51.436;6.774;2023-08-20T11:19:23;26.60;99.90
20418;DHT22;10368;51.436;6.774;2023-08-20T11:21:51;27.40;99.90
20418;DHT22;10368;51.436;6.774;2023-08-20T11:24:18;27.60;99.90
20418;DHT22;10368;51.436;6.774;2023-08-20T11:26:47;28.10;99.90
20418;DHT22;10368;51.436;6.774;2023-08-20T11:29:16;28.60;99.90
20418;DHT22;10368;51.436;6.774;2023-08-20T11:31:48;28.60;99.90
20418;DHT22;10368;51.436;6.774;2023-08-20T11:34:15;28.50;99.90
20418;DHT22;10368;51.436;6.774;2023-08-20T11:36:43;29.00;99.90
20418;DHT22;10368;51.436;6.774;2023-08-20T11:39:10;28.60;99.90
20418;DHT22;10368;51.436;6.774;2023-08-20T11:41:39;28.00;99.90
20418;DHT22;10368;51.436;6.774;2023-08-20T11:44:08;28.00;99.90
20418;DHT22;10368;51.436;6.774;2023-08-20T11:46:42;28.20;99.20
20418;DHT22;10368;51.436;6.774;2023-08-20T11:49:10;28.10;98.40
20418;DHT22;10368;51.436;6.774;2023-08-20T11:51:42;28.20;97.30
20418;DHT22;10368;51.436;6.774;2023-08-20T11:54:12;28.60;96.70
20418;DHT22;10368;51.436;6.774;2023-08-20T11:56:43;29.70;93.80
20418;DHT22;10368;51.436;6.774;2023-08-20T11:59:11;29.50;93.60
20418;DHT22;10368;51.436;6.774;2023-08-20T12:01:39;29.30;94.10
20418;DHT22;10368;51.436;6.774;2023-08-20T12:04:08;29.80;93.70
20418;DHT22;10368;51.436;6.774;2023-08-20T12:06:36;29.90;92.70
20418;DHT22;10368;51.436;6.774;2023-08-20T12:09:23;30.00;92.70
20418;DHT22;10368;51.436;6.774;2023-08-20T12:11:54;29.70;92.50
20418;DHT22;10368;51.436;6.774;2023-08-20T12:14:23;29.00;94.60
20418;DHT22;10368;51.436;6.774;2023-08-20T12:16:50;29.40;95.90
20418;DHT22;10368;51.436;6.774;2023-08-20T12:19:17;29.80;94.90
20418;DHT22;10368;51.436;6.774;2023-08-20T12:21:45;29.70;93.90
20418;DHT22;10368;51.436;6.774;2023-08-20T12:24:12;30.50;91.80
20418;DHT22;10368;51.436;6.774;2023-08-20T12:26:40;30.50;91.10
20418;DHT22;10368;51.436;6.774;2023-08-20T12:29:07;30.20;93.10
20418;DHT22;10368;51.436;6.774;2023-08-20T12:31:35;30.30;92.50
20418;DHT22;10368;51.436;6.774;2023-08-20T12:34:02;30.00;92.20
20418;DHT22;10368;51.436;6.774;2023-08-20T12:36:30;30.00;92.20
20418;DHT22;10368;51.436;6.774;2023-08-20T12:38:57;30.20;92.20
20418;DHT22;10368;51.436;6.774;2023-08-20T12:41:24;30.20;91.70
20418;DHT22;10368;51.436;6.774;2023-08-20T12:43:51;30.50;90.90
20418;DHT22;10368;51.436;6.774;2023-08-20T12:46:19;30.50;90.70
20418;DHT22;10368;51.436;6.774;2023-08-20T12:48:46;31.50;84.70
20418;DHT22;10368;51.436;6.774;2023-08-20T12:51:13;31.10;83.50
20418;DHT22;10368;51.436;6.774;2023-08-20T12:53:42;31.20;81.20
20418;DHT22;10368;51.436;6.774;2023-08-20T12:56:10;32.40;79.60
20418;DHT22;10368;51.436;6.774;2023-08-20T12:58:37;32.60;77.10
20418;DHT22;10368;51.436;6.774;2023-08-20T13:01:04;31.10;82.30
20418;DHT22;10368;51.436;6.774;2023-08-20T13:03:31;31.30;80.30
20418;DHT22;10368;51.436;6.774;2023-08-20T13:05:59;31.00;79.50
20418;DHT22;10368;51.436;6.774;2023-08-20T13:08:26;30.20;81.20
20418;DHT22;10368;51.436;6.774;2023-08-20T13:10:55;30.70;80.30
20418;DHT22;10368;51.436;6.774;2023-08-20T13:13:24;31.60;78.90
20418;DHT22;10368;51.436;6.774;2023-08-20T13:15:51;30.70;78.50
20418;DHT22;10368;51.436;6.774;2023-08-20T13:18:19;30.40;79.80
20418;DHT22;10368;51.436;6.774;2023-08-20T13:20:51;30.40;81.80
20418;DHT22;10368;51.436;6.774;2023-08-20T13:23:19;30.80;76.70
20418;DHT22;10368;51.436;6.774;2023-08-20T13:25:46;31.20;77.50
20418;DHT22;10368;51.436;6.774;2023-08-20T13:28:13;30.70;77.60
20418;DHT22;10368;51.436;6.774;2023-08-20T13:30:39;31.50;78.20
20418;DHT22;10368;51.436;6.774;2023-08-20T13:33:06;31.60;74.40
20418;DHT22;10368;51.436;6.774;2023-08-20T13:35:34;30.30;78.50
20418;DHT22;10368;51.436;6.774;2023-08-20T13:38:01;29.60;78.20
20418;DHT22;10368;51.436;6.774;2023-08-20T13:40:28;31.30;76.00
20418;DHT22;10368;51.436;6.774;2023-08-20T13:42:55;31.40;75.10
20418;DHT22;10368;51.436;6.774;2023-08-20T13:45:22;30.20;82.30
20418;DHT22;10368;51.436;6.774;2023-08-20T13:47:49;29.80;83.30
20418;DHT22;10368;51.436;6.774;2023-08-20T13:50:16;31.70;74.10
20418;DHT22;10368;51.436;6.774;2023-08-20T13:52:43;33.00;68.60
20418;DHT22;10368;51.436;6.774;2023-08-20T13:55:10;32.40;67.40
20418;DHT22;10368;51.436;6.774;2023-08-20T13:57:37;32.10;69.80
20418;DHT22;10368;51.436;6.774;2023-08-20T14:00:05;31.80;71.10
20418;DHT22;10368;51.436;6.774;2023-08-20T14:02:39;32.70;69.50
20418;DHT22;10368;51.436;6.774;2023-08-20T14:05:06;32.00;68.40
20418;DHT22;10368;51.436;6.774;2023-08-20T14:07:34;32.10;68.70
20418;DHT22;10368;51.436;6.774;2023-08-20T14:10:02;32.40;68.00
20418;DHT22;10368;51.436;6.774;2023-08-20T14:12:31;32.70;66.60
20418;DHT22;10368;51.436;6.774;2023-08-20T14:14:58;31.70;67.30
20418;DHT22;10368;51.436;6.774;2023-08-20T14:17:25;30.20;72.00
20418;DHT22;10368;51.436;6.774;2023-08-20T14:19:52;30.30;74.20
20418;DHT22;10368;51.436;6.774;2023-08-20T14:22:19;32.20;67.50
20418;DHT22;10368;51.436;6.774;2023-08-20T14:24:46;32.20;66.00
20418;DHT22;10368;51.436;6.774;2023-08-20T14:27:13;31.20;66.70
20418;DHT22;10368;51.436;6.774;2023-08-20T14:29:41;32.20;64.60
20418;DHT22;10368;51.436;6.774;2023-08-20T14:32:08;33.40;63.70
20418;DHT22;10368;51.436;6.774;2023-08-20T14:34:35;33.10;61.60
20418;DHT22;10368;51.436;6.774;2023-08-20T14:37:02;32.20;63.20
20418;DHT22;10368;51.436;6.774;2023-08-20T14:39:31;32.60;63.00
20418;DHT22;10368;51.436;6.774;2023-08-20T14:41:58;31.30;66.00
20418;DHT22;10368;51.436;6.774;2023-08-20T14:44:26;30.50;68.90
20418;DHT22;10368;51.436;6.774;2023-08-20T14:46:53;30.70;67.90
20418;DHT22;10368;51.436;6.774;2023-08-20T14:49:20;31.20;67.90
20418;DHT22;10368;51.436;6.774;2023-08-20T14:51:48;30.00;72.40
20418;DHT22;10368;51.436;6.774;2023-08-20T14:54:14;30.80;71.10
20418;DHT22;10368;51.436;6.774;2023-08-20T14:56:41;30.30;74.20
20418;DHT22;10368;51.436;6.774;2023-08-20T14:59:08;31.40;68.30
20418;DHT22;10368;51.436;6.774;2023-08-20T15:01:37;31.90;64.70
20418;DHT22;10368;51.436;6.774;2023-08-20T15:04:03;31.60;65.10
20418;DHT22;10368;51.436;6.774;2023-08-20T15:06:30;31.30;67.70
20418;DHT22;10368;51.436;6.774;2023-08-20T15:08:57;32.00;65.70
20418;DHT22;10368;51.436;6.774;2023-08-20T15:11:24;31.90;65.70
20418;DHT22;10368;51.436;6.774;2023-08-20T15:13:51;31.70;66.80
20418;DHT22;10368;51.436;6.774;2023-08-20T15:16:18;31.40;66.50
20418;DHT22;10368;51.436;6.774;2023-08-20T15:18:45;31.60;66.00
20418;DHT22;10368;51.436;6.774;2023-08-20T15:21:12;31.20;66.60
20418;DHT22;10368;51.436;6.774;2023-08-20T15:23:39;31.10;68.10
20418;DHT22;10368;51.436;6.774;2023-08-20T15:26:06;31.00;68.80
20418;DHT22;10368;51.436;6.774;2023-08-20T15:28:33;31.70;65.80
20418;DHT22;10368;51.436;6.774;2023-08-20T15:31:00;30.90;68.80
20418;DHT22;10368;51.436;6.774;2023-08-20T15:33:28;31.30;65.40
20418;DHT22;10368;51.436;6.774;2023-08-20T15:35:56;30.70;68.10
20418;DHT22;10368;51.436;6.774;2023-08-20T15:38:23;31.20;65.60
20418;DHT22;10368;51.436;6.774;2023-08-20T15:40:51;31.50;64.50
20418;DHT22;10368;51.436;6.774;2023-08-20T15:43:17;31.30;66.00
20418;DHT22;10368;51.436;6.774;2023-08-20T15:45:44;30.80;67.60